Time;durP1;ratioP1;P1;durP2;ratioP2;P2;SDS_P1;SDS_P2;PMS_P1;PMS_P2;Temp;Humidity;BMP_temperature;BMP_pressure;BME280_temperature;BME280_humidity;BME280_pressure;Samples;Min_cycle;Max_cycle;Signal;HPM_P1;HPM_P2
2024/03/03 00:00:47;;;;;;;22.00;10.30;;;;;;;0.89;100.00;100826.23;108096;1254;59208;-67
2024/03/03 00:03:15;;;;;;;20.00;10.90;;;;;;;0.93;100.00;100825.41;108156;1254;74684;-67
2024/03/03 00:05:43;;;;;;;24.50;10.80;;;;;;;0.96;100.00;100827.71;108088;1259;71451;-67
2024/03/03 00:08:12;;;;;;;23.00;11.90;;;;;;;0.99;100.00;100827.00;108101;1254;71495;-66
2024/03/03 00:10:40;;;;;;;21.00;10.90;;;;;;;1.02;100.00;100826.15;108122;1254;61087;-66
2024/03/03 00:13:08;;;;;;;21.80;10.60;;;;;;;1.04;100.00;100822.23;108100;1254;61154;-69
2024/03/03 00:15:35;;;;;;;21.30;10.70;;;;;;;1.04;100.00;100819.36;108062;1254;73375;-67
2024/03/03 00:18:05;;;;;;;23.10;10.80;;;;;;;1.03;100.00;100813.30;108054;1256;71236;-68
2024/03/03 00:20:33;;;;;;;18.70;9.60;;;;;;;1.02;100.00;100812.63;108026;1254;71417;-65
2024/03/03 00:23:01;;;;;;;24.20;10.80;;;;;;;1.00;100.00;100810.88;108047;1254;61171;-69
2024/03/03 00:25:28;;;;;;;20.90;10.70;;;;;;;1.01;100.00;100810.99;107985;1254;59039;-65
2024/03/03 00:27:56;;;;;;;21.20;10.30;;;;;;;1.07;100.00;100812.47;108083;1254;73356;-66
2024/03/03 00:30:24;;;;;;;20.20;10.50;;;;;;;1.08;100.00;100806.09;108043;1254;72685;-67
2024/03/03 00:32:51;;;;;;;19.30;10.10;;;;;;;0.96;100.00;100811.56;108079;1254;72182;-66
2024/03/03 00:35:20;;;;;;;19.20;10.90;;;;;;;0.92;100.00;100805.89;108084;1254;60527;-66
2024/03/03 00:37:47;;;;;;;23.10;10.20;;;;;;;0.91;100.00;100805.52;108128;1254;61222;-66
2024/03/03 00:40:15;;;;;;;23.60;10.80;;;;;;;0.91;100.00;100807.98;108103;1257;73069;-65
2024/03/03 00:42:43;;;;;;;23.90;11.30;;;;;;;0.91;100.00;100804.46;108039;1253;72772;-65
2024/03/03 00:45:11;;;;;;;17.60;9.60;;;;;;;0.93;100.00;100803.65;108098;1259;71087;-66
2024/03/03 00:47:39;;;;;;;22.70;10.20;;;;;;;0.93;100.00;100801.05;108089;1254;61082;-66
2024/03/03 00:50:08;;;;;;;24.10;10.60;;;;;;;0.94;100.00;100801.79;108103;1254;59298;-65
2024/03/03 00:52:36;;;;;;;19.70;10.40;;;;;;;0.95;100.00;100801.88;108144;1254;73401;-65
2024/03/03 00:55:05;;;;;;;28.20;12.10;;;;;;;0.96;100.00;100805.42;107972;1254;71881;-65
2024/03/03 00:57:33;;;;;;;22.30;10.50;;;;;;;0.99;100.00;100806.52;108123;1254;71506;-66
2024/03/03 01:00:01;;;;;;;22.10;10.60;;;;;;;1.00;100.00;100806.02;108104;1254;61234;-66
2024/03/03 01:02:29;;;;;;;20.90;10.60;;;;;;;1.01;100.00;100804.25;108277;1254;61253;-65
2024/03/03 01:04:56;;;;;;;24.60;10.70;;;;;;;1.03;100.00;100802.61;108058;1254;74611;-65
2024/03/03 01:07:24;;;;;;;19.60;9.00;;;;;;;1.07;100.00;100806.39;108058;1254;71344;-65
2024/03/03 01:09:52;;;;;;;19.10;10.00;;;;;;;1.10;100.00;100806.19;107985;1254;72682;-66
2024/03/03 01:12:20;;;;;;;17.20;9.20;;;;;;;1.13;100.00;100805.93;108134;1257;60935;-66
2024/03/03 01:14:48;;;;;;;20.70;10.20;;;;;;;1.17;100.00;100807.26;108009;1256;61160;-66
2024/03/03 01:17:16;;;;;;;19.50;10.00;;;;;;;1.21;100.00;100808.14;108056;1254;75122;-66
2024/03/03 01:19:43;;;;;;;16.00;9.30;;;;;;;1.38;100.00;100808.94;108085;1259;71479;-66
2024/03/03 01:22:11;;;;;;;20.00;10.10;;;;;;;1.43;100.00;100809.79;108012;1259;72657;-66
2024/03/03 01:24:39;;;;;;;20.60;9.80;;;;;;;1.43;100.00;100807.36;108084;1254;61221;-67
2024/03/03 01:27:07;;;;;;;18.40;10.70;;;;;;;1.63;100.00;100809.42;108021;1254;61215;-66
2024/03/03 01:29:35;;;;;;;19.50;9.90;;;;;;;1.71;100.00;100807.73;108116;1254;73467;-66
2024/03/03 01:32:03;;;;;;;18.80;10.50;;;;;;;1.75;100.00;100806.49;108012;1253;71593;-65
2024/03/03 01:34:31;;;;;;;23.60;10.50;;;;;;;1.79;100.00;100804.91;108040;1254;71217;-65
2024/03/03 01:36:59;;;;;;;16.30;9.30;;;;;;;1.84;100.00;100810.65;107993;1254;61643;-65
2024/03/03 01:39:27;;;;;;;22.20;10.20;;;;;;;1.90;100.00;100807.58;107935;1254;61337;-66
2024/03/03 01:41:54;;;;;;;17.00;9.10;;;;;;;1.96;100.00;100808.13;108077;1254;73460;-67
2024/03/03 01:44:22;;;;;;;17.80;9.20;;;;;;;1.98;100.00;100809.91;108071;1254;71478;-67
2024/03/03 01:46:50;;;;;;;22.50;9.80;;;;;;;2.02;100.00;100807.55;108042;1257;72489;-69
2024/03/03 01:49:17;;;;;;;16.90;9.00;;;;;;;2.05;100.00;100810.32;108010;1254;61125;-66
2024/03/03 01:51:46;;;;;;;22.90;10.60;;;;;;;2.08;100.00;100810.75;108075;1259;61259;-65
2024/03/03 01:54:14;;;;;;;21.60;9.60;;;;;;;2.13;100.00;100806.88;108110;1254;74699;-66
2024/03/03 01:56:43;;;;;;;21.10;9.80;;;;;;;2.17;100.00;100804.88;107973;1256;71462;-66
2024/03/03 01:59:11;;;;;;;18.00;9.90;;;;;;;2.21;100.00;100807.05;107865;1254;72458;-65
2024/03/03 02:01:39;;;;;;;18.80;9.50;;;;;;;2.26;100.00;100807.27;108071;1254;61019;-64
2024/03/03 02:04:07;;;;;;;19.70;9.60;;;;;;;2.29;100.00;100805.09;107795;1254;61113;-66
2024/03/03 02:06:35;;;;;;;21.70;9.50;;;;;;;2.32;100.00;100804.73;108044;1254;73369;-67
2024/03/03 02:09:03;;;;;;;14.70;9.10;;;;;;;2.34;100.00;100805.64;107895;1254;72848;-65
2024/03/03 02:11:31;;;;;;;17.30;10.10;;;;;;;2.36;100.00;100803.38;108068;1254;72908;-66
2024/03/03 02:13:59;;;;;;;14.80;9.10;;;;;;;2.39;100.00;100801.12;108150;1254;61231;-67
2024/03/03 02:16:27;;;;;;;15.20;8.70;;;;;;;2.41;100.00;100800.92;108047;1254;61068;-66
2024/03/03 02:18:55;;;;;;;18.90;9.50;;;;;;;2.45;100.00;100801.50;108079;1254;74672;-65
2024/03/03 02:21:26;;;;;;;18.90;9.40;;;;;;;2.48;100.00;100797.54;108008;1254;72690;-65
2024/03/03 02:23:54;;;;;;;20.30;9.90;;;;;;;2.51;100.00;100800.72;108064;1257;73089;-66
2024/03/03 02:26:22;;;;;;;16.30;9.60;;;;;;;2.52;100.00;100803.48;107984;1259;61104;-65
2024/03/03 02:28:51;;;;;;;17.70;9.00;;;;;;;2.54;100.00;100803.01;108000;1254;61106;-65
2024/03/03 02:31:19;;;;;;;19.70;10.40;;;;;;;2.54;100.00;100795.90;108164;1254;73423;-66
2024/03/03 02:33:47;;;;;;;19.30;11.00;;;;;;;2.56;100.00;100793.71;108061;1259;71520;-66
2024/03/03 02:36:15;;;;;;;22.90;10.40;;;;;;;2.57;100.00;100797.29;107993;1254;71077;-65
2024/03/03 02:38:49;;;;;;;21.10;10.20;;;;;;;2.58;100.00;100791.20;108101;1254;61081;-65
2024/03/03 02:41:17;;;;;;;17.90;9.40;;;;;;;2.59;100.00;100793.31;108026;1254;60846;-66
2024/03/03 02:43:45;;;;;;;17.00;9.80;;;;;;;2.60;100.00;100796.37;108085;1254;73825;-66
2024/03/03 02:46:13;;;;;;;18.60;9.60;;;;;;;2.61;100.00;100797.14;108123;1254;71372;-66
2024/03/03 02:48:41;;;;;;;17.50;8.60;;;;;;;2.62;100.00;100797.73;108160;1254;72664;-65
2024/03/03 02:51:09;;;;;;;15.70;9.20;;;;;;;2.62;100.00;100801.61;108103;1254;61194;-65
2024/03/03 02:53:37;;;;;;;15.70;8.40;;;;;;;2.64;100.00;100801.40;108045;1254;61152;-65
2024/03/03 02:56:07;;;;;;;17.30;9.30;;;;;;;2.64;100.00;100801.33;108033;1257;74543;-66
2024/03/03 02:58:38;;;;;;;17.00;8.90;;;;;;;2.66;100.00;100800.23;108163;1254;72604;-67
2024/03/03 03:01:06;;;;;;;18.40;9.40;;;;;;;2.69;100.00;100802.67;107953;1254;73226;-67
2024/03/03 03:03:34;;;;;;;17.50;8.50;;;;;;;2.70;100.00;100806.00;108022;1259;61138;-67
2024/03/03 03:06:02;;;;;;;17.00;9.40;;;;;;;2.71;100.00;100806.70;108137;1254;61079;-66
2024/03/03 03:08:29;;;;;;;15.80;8.10;;;;;;;2.71;100.00;100805.16;108188;1253;73325;-66
2024/03/03 03:10:57;;;;;;;18.30;9.30;;;;;;;2.72;100.00;100812.22;108073;1256;71655;-67
2024/03/03 03:13:25;;;;;;;17.80;9.20;;;;;;;2.73;100.00;100806.73;108044;1255;71400;-67
2024/03/03 03:15:53;;;;;;;14.20;8.80;;;;;;;2.73;100.00;100804.69;107962;1257;61158;-66
2024/03/03 03:18:21;;;;;;;19.00;9.30;;;;;;;2.73;100.00;100804.59;108016;1259;61144;-66
2024/03/03 03:20:49;;;;;;;16.20;8.40;;;;;;;2.72;100.00;100802.80;108100;1259;73322;-67
2024/03/03 03:23:17;;;;;;;18.20;9.20;;;;;;;2.71;100.00;100802.52;108073;1259;71950;-67
2024/03/03 03:25:45;;;;;;;15.80;8.70;;;;;;;2.71;100.00;100802.05;108082;1254;71642;-66
2024/03/03 03:28:12;;;;;;;17.40;9.00;;;;;;;2.70;100.00;100803.33;108050;1254;61322;-67
2024/03/03 03:30:40;;;;;;;19.10;9.80;;;;;;;2.72;100.00;100803.66;108054;1254;61570;-66
2024/03/03 03:33:08;;;;;;;16.60;8.30;;;;;;;2.74;100.00;100802.16;108006;1254;73373;-66
2024/03/03 03:35:37;;;;;;;16.50;9.00;;;;;;;2.75;100.00;100803.83;107949;1254;71450;-65
2024/03/03 03:38:04;;;;;;;17.40;8.30;;;;;;;2.75;100.00;100799.32;108026;1254;72592;-65
2024/03/03 03:40:33;;;;;;;14.90;9.00;;;;;;;2.75;100.00;100801.23;108066;1254;61094;-66
2024/03/03 03:43:05;;;;;;;19.00;8.90;;;;;;;2.76;100.00;100800.48;108148;1254;60003;-66
2024/03/03 03:45:39;;;;;;;15.50;9.30;;;;;;;2.75;100.00;100798.14;108048;1256;73409;-66
2024/03/03 03:48:08;;;;;;;16.70;8.40;;;;;;;2.75;100.00;100801.56;107946;1255;72936;-66
2024/03/03 03:50:42;;;;;;;18.60;8.40;;;;;;;2.74;100.00;100800.05;107984;1254;72392;-65
2024/03/03 03:53:14;;;;;;;17.50;8.40;;;;;;;2.73;100.00;100799.24;108091;1255;61249;-67
2024/03/03 03:55:49;;;;;;;15.20;8.00;;;;;;;2.73;100.00;100800.13;108114;1254;61079;-68
2024/03/03 03:58:18;;;;;;;16.40;8.80;;;;;;;2.73;100.00;100798.95;107993;1254;74633;-67
2024/03/03 04:00:50;;;;;;;14.90;8.60;;;;;;;2.73;100.00;100797.13;108073;1254;72733;-65
2024/03/03 04:03:22;;;;;;;16.00;8.30;;;;;;;2.73;100.00;100794.73;108044;1254;71482;-67
2024/03/03 04:05:54;;;;;;;16.20;8.40;;;;;;;2.71;100.00;100794.98;108203;1254;62090;-66
2024/03/03 04:08:24;;;;;;;16.00;9.00;;;;;;;2.71;100.00;100793.92;108099;1259;60005;-67
2024/03/03 04:10:54;;;;;;;14.70;7.70;;;;;;;2.72;100.00;100794.89;108116;1254;76600;-67
2024/03/03 04:13:25;;;;;;;14.50;7.40;;;;;;;2.71;100.00;100795.18;108066;1254;71751;-67
2024/03/03 04:15:55;;;;;;;13.40;7.60;;;;;;;2.71;100.00;100796.04;108119;1254;71381;-67
2024/03/03 04:18:27;;;;;;;12.50;7.90;;;;;;;2.71;100.00;100792.21;108123;1254;61225;-67
2024/03/03 04:21:12;;;;;;;11.90;7.00;;;;;;;2.70;100.00;100788.42;108085;1254;61068;-67
2024/03/03 04:23:42;;;;;;;;;;;;;;;2.69;100.00;100789.11;108120;1254;74690;-68
2024/03/03 04:26:18;;;;;;;14.50;7.30;;;;;;;2.67;100.00;100788.31;108074;1254;72709;-68
2024/03/03 04:28:48;;;;;;;12.80;7.00;;;;;;;2.67;100.00;100791.15;108075;1257;71774;-67
2024/03/03 04:31:21;;;;;;;12.50;7.10;;;;;;;2.66;100.00;100788.02;108040;1254;61137;-66
2024/03/03 04:33:51;;;;;;;12.30;6.70;;;;;;;2.67;100.00;100788.43;108047;1254;59010;-66
2024/03/03 04:36:23;;;;;;;10.90;7.10;;;;;;;2.69;100.00;100788.08;108003;1254;74643;-66
2024/03/03 04:38:57;;;;;;;11.50;7.30;;;;;;;2.71;100.00;100796.06;108120;1254;72829;-66
2024/03/03 04:41:28;;;;;;;13.10;7.40;;;;;;;2.71;100.00;100793.23;108044;1254;74870;-68
2024/03/03 04:44:00;;;;;;;12.70;7.30;;;;;;;2.71;100.00;100794.61;108078;1254;61195;-67
2024/03/03 04:46:32;;;;;;;11.70;7.40;;;;;;;2.71;100.00;100794.61;108126;1254;60495;-67
2024/03/03 04:49:02;;;;;;;14.40;7.30;;;;;;;2.72;100.00;100794.73;108163;1254;73816;-67
2024/03/03 04:51:32;;;;;;;11.60;7.00;;;;;;;2.72;100.00;100796.69;108091;1254;71673;-67
2024/03/03 04:54:11;;;;;;;12.60;7.10;;;;;;;2.72;100.00;100795.73;108155;1259;71475;-67
2024/03/03 04:56:44;;;;;;;13.10;7.00;;;;;;;2.72;100.00;100798.58;108039;1254;61075;-66
2024/03/03 04:59:21;;;;;;;12.50;7.00;;;;;;;2.70;100.00;100797.89;108190;1254;61292;-68
2024/03/03 05:01:52;;;;;;;13.70;7.10;;;;;;;2.50;100.00;100798.89;108073;1254;75679;-70
2024/03/03 05:04:40;;;;;;;11.70;6.90;;;;;;;2.48;100.00;100800.35;108102;1254;72941;-68
2024/03/03 05:07:09;;;;;;;11.80;7.10;;;;;;;2.41;100.00;100802.21;108040;1260;71512;-68
2024/03/03 05:09:38;;;;;;;12.50;7.70;;;;;;;2.40;100.00;100803.73;108112;1257;59327;-68
2024/03/03 05:12:07;;;;;;;12.30;7.10;;;;;;;2.40;100.00;100802.20;107974;1256;61051;-67
2024/03/03 05:14:36;;;;;;;12.10;6.90;;;;;;;2.40;100.00;100804.84;108038;1257;74792;-66
2024/03/03 05:17:05;;;;;;;11.50;7.00;;;;;;;2.41;100.00;100803.77;108012;1257;71509;-66
2024/03/03 05:19:34;;;;;;;15.20;7.20;;;;;;;2.43;100.00;100805.15;108031;1260;72409;-67
2024/03/03 05:22:04;;;;;;;12.70;6.80;;;;;;;2.44;100.00;100804.75;108017;1255;61814;-67
2024/03/03 05:24:33;;;;;;;14.40;6.70;;;;;;;2.45;100.00;100806.17;108047;1257;60023;-67
2024/03/03 05:27:03;;;;;;;11.30;6.10;;;;;;;2.46;100.00;100808.52;108129;1256;74821;-67
2024/03/03 05:29:30;;;;;;;9.60;5.90;;;;;;;2.46;100.00;100809.25;108112;1257;71475;-67
2024/03/03 05:31:58;;;;;;;9.90;5.80;;;;;;;2.48;100.00;100808.16;108084;1256;72527;-67
2024/03/03 05:34:26;;;;;;;11.80;6.40;;;;;;;2.50;100.00;100809.11;108020;1257;61241;-68
2024/03/03 05:36:53;;;;;;;11.40;6.40;;;;;;;2.52;100.00;100811.08;108163;1254;61138;-67
2024/03/03 05:39:25;;;;;;;9.70;6.10;;;;;;;2.53;100.00;100808.55;108161;1254;74698;-67
2024/03/03 05:41:55;;;;;;;12.60;6.00;;;;;;;2.55;100.00;100811.80;108144;1254;72737;-70
2024/03/03 05:44:26;;;;;;;9.10;5.50;;;;;;;2.57;100.00;100812.06;108161;1254;71383;-68
2024/03/03 05:46:54;;;;;;;10.40;5.60;;;;;;;2.59;100.00;100813.52;108144;1254;61099;-67
2024/03/03 05:49:29;;;;;;;9.20;5.10;;;;;;;2.61;100.00;100813.69;108202;1258;61218;-67
2024/03/03 05:52:04;;;;;;;10.00;6.10;;;;;;;2.65;100.00;100807.94;108136;1254;75833;-70
2024/03/03 05:54:44;;;;;;;10.40;6.00;;;;;;;2.69;100.00;100806.89;108151;1254;72486;-67
2024/03/03 05:57:22;;;;;;;10.30;5.70;;;;;;;2.72;100.00;100805.52;108112;1259;71409;-67
2024/03/03 05:59:56;;;;;;;9.10;5.10;;;;;;;2.75;100.00;100806.02;108125;1258;61192;-68
2024/03/03 06:02:25;;;;;;;;;;;;;;;2.80;100.00;100809.69;108139;1254;60528;-67
2024/03/03 06:05:04;;;;;;;9.60;5.20;;;;;;;2.85;100.00;100811.69;108126;1254;74829;-67
2024/03/03 06:07:43;;;;;;;8.90;5.60;;;;;;;2.89;100.00;100813.04;108033;1254;72710;-68
2024/03/03 06:10:20;;;;;;;7.70;4.70;;;;;;;2.93;100.00;100811.42;108062;1254;72762;-68
2024/03/03 06:12:49;;;;;;;8.20;5.30;;;;;;;2.94;100.00;100809.47;108135;1255;61209;-68
2024/03/03 06:15:17;;;;;;;8.60;5.50;;;;;;;2.97;100.00;100808.52;108046;1254;60021;-68
2024/03/03 06:17:45;;;;;;;8.60;5.20;;;;;;;3.00;100.00;100807.48;108113;1254;74623;-68
2024/03/03 06:20:13;;;;;;;9.90;5.00;;;;;;;3.05;100.00;100810.02;108076;1259;71419;-68
2024/03/03 06:22:41;;;;;;;8.60;5.30;;;;;;;3.11;100.00;100812.50;108106;1259;71820;-67
2024/03/03 06:25:10;;;;;;;8.50;4.90;;;;;;;3.17;99.83;100816.41;108035;1257;61173;-67
2024/03/03 06:27:37;;;;;;;8.70;4.80;;;;;;;3.24;99.07;100816.83;108113;1260;61244;-71
2024/03/03 06:30:10;;;;;;;8.80;5.00;;;;;;;3.31;98.66;100817.15;108062;1254;73824;-66
2024/03/03 06:32:38;;;;;;;8.90;4.70;;;;;;;3.40;97.81;100814.59;108050;1257;71662;-66
2024/03/03 06:35:10;;;;;;;9.10;4.80;;;;;;;3.46;96.00;100818.56;107992;1260;71435;-66
2024/03/03 06:37:38;;;;;;;8.30;4.80;;;;;;;3.46;93.89;100821.50;108001;1256;60965;-66
2024/03/03 06:40:09;;;;;;;8.40;5.00;;;;;;;3.39;91.94;100823.36;108110;1254;61275;-66
2024/03/03 06:42:40;;;;;;;9.40;4.70;;;;;;;3.32;91.38;100825.19;108104;1259;73363;-66
2024/03/03 06:45:09;;;;;;;7.80;4.40;;;;;;;3.24;90.91;100824.89;108112;1259;71699;-68
2024/03/03 06:47:37;;;;;;;7.40;4.20;;;;;;;3.17;90.43;100825.91;108125;1259;72552;-67
2024/03/03 06:50:06;;;;;;;8.60;4.10;;;;;;;3.15;90.65;100826.85;108151;1254;61158;-66
2024/03/03 06:52:34;;;;;;;6.30;3.80;;;;;;;3.21;90.86;100825.91;108077;1259;61147;-68
2024/03/03 06:55:02;;;;;;;8.80;4.50;;;;;;;3.28;90.21;100823.21;108131;1254;73388;-68
2024/03/03 06:57:30;;;;;;;8.00;4.20;;;;;;;3.36;89.53;100823.57;108144;1258;71432;-68
2024/03/03 06:59:57;;;;;;;7.50;4.10;;;;;;;3.43;88.88;100820.85;108107;1254;72718;-67
2024/03/03 07:02:56;;;;;;;6.90;3.80;;;;;;;3.48;88.06;100822.67;108026;1259;61108;-69
2024/03/03 07:05:14;;;;;;;7.90;4.00;;;;;;;3.49;86.93;100819.95;108096;1258;61116;-67
2024/03/03 07:07:41;;;;;;;6.40;3.50;;;;;;;3.48;86.22;100823.85;108032;1255;73403;-68
2024/03/03 07:10:10;;;;;;;7.30;3.70;;;;;;;3.50;86.08;100825.69;108058;1259;71431;-67
2024/03/03 07:12:37;;;;;;;6.60;3.80;;;;;;;3.55;85.53;100827.42;108115;1254;71462;-67
2024/03/03 07:15:06;;;;;;;7.10;4.30;;;;;;;3.58;84.30;100829.14;108045;1260;61122;-69
2024/03/03 07:17:33;;;;;;;6.30;3.80;;;;;;;3.63;83.88;100832.29;108077;1254;61127;-67
2024/03/03 07:20:03;;;;;;;6.70;3.50;;;;;;;3.68;82.72;100830.92;108120;1259;74632;-67
2024/03/03 07:22:34;;;;;;;7.30;3.50;;;;;;;3.94;81.05;100830.93;108106;1254;72962;-66
2024/03/03 07:25:03;;;;;;;5.90;3.50;;;;;;;4.06;78.45;100834.27;108133;1259;72502;-68
2024/03/03 07:27:31;;;;;;;6.60;3.90;;;;;;;4.13;77.37;100831.13;108137;1254;59236;-68
2024/03/03 07:29:59;;;;;;;6.70;3.40;;;;;;;4.18;76.76;100828.35;108118;1254;61266;-68
2024/03/03 07:32:31;;;;;;;5.30;3.40;;;;;;;4.26;76.60;100831.29;108141;1256;73365;-66
2024/03/03 07:34:59;;;;;;;6.00;3.40;;;;;;;4.33;75.93;100823.78;108149;1254;71446;-67
2024/03/03 07:37:26;;;;;;;6.50;3.50;;;;;;;4.41;75.83;100826.92;108092;1260;71615;-69
2024/03/03 07:39:54;;;;;;;6.00;3.40;;;;;;;4.51;75.23;100828.88;108053;1259;61206;-67
2024/03/03 07:42:22;;;;;;;7.90;3.60;;;;;;;4.57;74.33;100830.89;108064;1257;60458;-67
2024/03/03 07:44:50;;;;;;;5.80;3.40;;;;;;;4.63;73.71;100830.66;108118;1254;73374;-68
2024/03/03 07:47:18;;;;;;;5.80;3.70;;;;;;;4.67;72.54;100833.05;108152;1260;71419;-69
2024/03/03 07:49:45;;;;;;;5.40;3.40;;;;;;;4.67;71.86;100827.85;108088;1259;71793;-67
2024/03/03 07:52:13;;;;;;;6.80;3.40;;;;;;;4.68;71.47;100833.44;108213;1257;61308;-69
2024/03/03 07:54:41;;;;;;;6.90;3.80;;;;;;;4.70;71.69;100838.40;108094;1255;59982;-67
2024/03/03 07:57:10;;;;;;;5.80;3.50;;;;;;;4.78;72.00;100836.13;108120;1258;74645;-67
2024/03/03 07:59:38;;;;;;;6.10;3.80;;;;;;;4.87;71.90;100842.91;108112;1254;75366;-67
2024/03/03 08:02:05;;;;;;;6.50;3.10;;;;;;;4.94;71.12;100838.80;108022;1257;72778;-69
2024/03/03 08:04:33;;;;;;;7.00;3.40;;;;;;;4.97;70.08;100840.54;108098;1257;59210;-70
2024/03/03 08:07:04;;;;;;;6.20;3.50;;;;;;;4.95;69.07;100838.71;108058;1257;61107;-69
2024/03/03 08:09:32;;;;;;;6.20;3.30;;;;;;;4.92;69.01;100836.89;107947;1257;74911;-68
2024/03/03 08:12:00;;;;;;;6.50;3.20;;;;;;;4.93;68.94;100838.95;108027;1257;74552;-68
2024/03/03 08:14:30;;;;;;;5.90;3.50;;;;;;;4.95;68.75;100841.16;107989;1256;71425;-68
2024/03/03 08:16:57;;;;;;;5.50;3.30;;;;;;;5.00;69.02;100837.14;108090;1255;61222;-67
2024/03/03 08:19:27;;;;;;;6.80;3.60;;;;;;;5.04;68.93;100836.22;108096;1254;60975;-69
2024/03/03 08:21:56;;;;;;;7.30;3.50;;;;;;;5.10;69.24;100833.20;108134;1254;74590;-71
2024/03/03 08:24:24;;;;;;;5.90;3.60;;;;;;;5.20;69.04;100836.32;108077;1254;72768;-68
2024/03/03 08:26:52;;;;;;;5.90;3.60;;;;;;;5.32;68.98;100836.77;108093;1254;71374;-67
2024/03/03 08:29:20;;;;;;;6.10;3.30;;;;;;;5.42;67.99;100838.31;108078;1257;59879;-68
2024/03/03 08:31:47;;;;;;;6.70;3.30;;;;;;;5.50;67.19;100837.41;108065;1254;60075;-68
2024/03/03 08:34:15;;;;;;;6.10;3.50;;;;;;;5.56;67.04;100836.13;107978;1254;73441;-67
2024/03/03 08:36:44;;;;;;;6.00;3.30;;;;;;;5.64;66.40;100834.27;108015;1256;71427;-68
2024/03/03 08:39:12;;;;;;;5.00;3.00;;;;;;;5.69;65.41;100834.59;108125;1255;74677;-68
2024/03/03 08:41:41;;;;;;;6.70;3.40;;;;;;;5.71;65.06;100831.95;108127;1254;61109;-67
2024/03/03 08:44:10;;;;;;;5.80;3.40;;;;;;;5.73;64.43;100832.93;108001;1254;61140;-68
2024/03/03 08:46:37;;;;;;;8.60;4.00;;;;;;;5.64;64.44;100835.04;108119;1254;73359;-67
2024/03/03 08:49:05;;;;;;;7.20;3.50;;;;;;;5.46;64.15;100834.40;108112;1254;71430;-67
2024/03/03 08:51:38;;;;;;;6.50;3.40;;;;;;;5.40;64.34;100837.85;108039;1257;71455;-68
2024/03/03 08:54:06;;;;;;;5.90;3.10;;;;;;;5.44;64.88;100841.80;108144;1255;61230;-68
2024/03/03 08:56:34;;;;;;;7.20;3.50;;;;;;;5.50;64.63;100846.23;108143;1254;61128;-67
2024/03/03 08:59:01;;;;;;;5.40;3.60;;;;;;;5.57;64.46;100846.30;107987;1254;73421;-68
2024/03/03 09:01:30;;;;;;;5.90;3.40;;;;;;;5.61;64.07;100845.45;108056;1254;72478;-70
2024/03/03 09:03:58;;;;;;;6.20;3.50;;;;;;;5.66;63.68;100843.63;108067;1254;71208;-69
2024/03/03 09:06:26;;;;;;;7.90;3.60;;;;;;;5.71;63.77;100845.70;108053;1254;61081;-68
2024/03/03 09:08:54;;;;;;;6.80;3.50;;;;;;;5.74;62.90;100847.06;108053;1254;61039;-69
2024/03/03 09:11:22;;;;;;;6.60;3.50;;;;;;;5.74;62.78;100849.50;108046;1255;77316;-69
2024/03/03 09:13:50;;;;;;;7.20;3.40;;;;;;;5.76;62.66;100849.24;107984;1254;72420;-68
2024/03/03 09:16:18;;;;;;;6.50;3.30;;;;;;;5.77;62.36;100849.76;108035;1254;71464;-69
2024/03/03 09:18:49;;;;;;;6.30;3.50;;;;;;;5.80;62.05;100847.37;108128;1255;61543;-67
2024/03/03 09:21:17;;;;;;;5.30;3.30;;;;;;;5.87;61.84;100848.77;108072;1254;61476;-68
2024/03/03 09:23:46;;;;;;;6.30;3.50;;;;;;;6.08;61.31;100850.15;108234;1254;77250;-68
2024/03/03 09:26:14;;;;;;;5.90;3.70;;;;;;;6.17;61.11;100848.06;108125;1254;71547;-69
2024/03/03 09:28:42;;;;;;;6.80;3.70;;;;;;;6.20;60.76;100849.48;108093;1254;72518;-68
2024/03/03 09:31:10;;;;;;;5.80;3.60;;;;;;;6.19;60.13;100851.42;108136;1254;61221;-68
2024/03/03 09:33:38;;;;;;;5.40;3.00;;;;;;;6.17;59.92;100853.86;107908;1254;61519;-70
2024/03/03 09:36:07;;;;;;;8.60;3.40;;;;;;;6.21;60.11;100855.56;108071;1260;75132;-68
2024/03/03 09:38:36;;;;;;;5.50;3.50;;;;;;;6.25;59.04;100848.41;108148;1259;71445;-68
2024/03/03 09:41:04;;;;;;;7.90;3.40;;;;;;;6.24;58.86;100847.95;108083;1254;72881;-69
2024/03/03 09:43:37;;;;;;;6.00;3.60;;;;;;;6.24;59.51;100844.79;108106;1254;61118;-68
2024/03/03 09:46:05;;;;;;;6.90;3.80;;;;;;;6.10;60.11;100846.41;108094;1254;61246;-68
2024/03/03 09:48:36;;;;;;;6.10;3.50;;;;;;;6.21;59.48;100844.37;108089;1254;74474;-67
2024/03/03 09:51:04;;;;;;;5.90;3.90;;;;;;;6.21;59.42;100842.87;108096;1254;72878;-67
2024/03/03 09:53:32;;;;;;;6.60;3.90;;;;;;;6.22;59.89;100844.41;107835;1254;72815;-67
2024/03/03 09:56:01;;;;;;;6.80;3.60;;;;;;;6.29;59.68;100837.93;107818;1257;61105;-68
2024/03/03 09:58:29;;;;;;;8.00;3.70;;;;;;;6.38;59.43;100837.78;107913;1254;61126;-68
2024/03/03 10:00:56;;;;;;;5.60;3.40;;;;;;;6.45;58.91;100835.62;107988;1254;73388;-67
2024/03/03 10:03:24;;;;;;;10.20;4.00;;;;;;;6.50;58.70;100833.85;107966;1260;71247;-68
2024/03/03 10:05:52;;;;;;;6.70;3.60;;;;;;;6.56;58.76;100833.89;107942;1254;70969;-66
2024/03/03 10:08:22;;;;;;;6.10;3.80;;;;;;;6.68;59.43;100832.95;108044;1254;61215;-70
2024/03/03 10:10:50;;;;;;;6.80;4.10;;;;;;;6.67;59.88;100830.00;108136;1253;61103;-68
2024/03/03 10:13:20;;;;;;;7.10;3.80;;;;;;;6.81;59.62;100831.65;108054;1254;73930;-68
2024/03/03 10:15:48;;;;;;;7.30;4.30;;;;;;;7.12;58.70;100827.33;107967;1260;72937;-67
2024/03/03 10:18:16;;;;;;;6.00;3.80;;;;;;;7.38;57.30;100825.22;108060;1254;74912;-68
2024/03/03 10:20:48;;;;;;;7.40;4.00;;;;;;;7.21;57.30;100827.80;108128;1254;61448;-67
2024/03/03 10:23:20;;;;;;;7.00;3.80;;;;;;;7.42;56.51;100831.65;108056;1260;61857;-68
2024/03/03 10:25:55;;;;;;;6.00;3.60;;;;;;;7.44;55.42;100830.11;108156;1254;74632;-68
2024/03/03 10:28:23;;;;;;;6.80;3.60;;;;;;;7.32;54.99;100827.80;108020;1256;71942;-66
2024/03/03 10:31:09;;;;;;;8.70;4.00;;;;;;;7.17;55.49;100824.64;108055;1257;74926;-67
2024/03/03 10:33:37;;;;;;;8.70;4.10;;;;;;;6.98;55.93;100818.02;108106;1254;60672;-70
2024/03/03 10:36:06;;;;;;;6.20;4.00;;;;;;;6.79;56.45;100823.75;108055;1254;61327;-68
2024/03/03 10:38:36;;;;;;;6.80;3.50;;;;;;;6.63;57.10;100819.93;108055;1254;76001;-68
2024/03/03 10:41:04;;;;;;;7.20;4.00;;;;;;;6.55;57.66;100822.63;108143;1254;72746;-68
2024/03/03 10:43:32;;;;;;;6.80;4.00;;;;;;;6.45;58.12;100823.73;108048;1256;75067;-68
2024/03/03 10:46:00;;;;;;;7.20;4.10;;;;;;;6.36;58.64;100822.41;108091;1256;61300;-68
2024/03/03 10:48:29;;;;;;;8.10;4.40;;;;;;;6.23;59.68;100824.44;108184;1254;62217;-67
2024/03/03 10:50:56;;;;;;;8.60;4.10;;;;;;;6.32;60.22;100820.95;108052;1254;76864;-67
2024/03/03 10:53:26;;;;;;;8.60;3.70;;;;;;;6.48;59.76;100822.48;107900;1256;73988;-67
2024/03/03 10:55:58;;;;;;;8.00;3.70;;;;;;;6.56;59.09;100818.34;107960;1257;71390;-68
2024/03/03 10:58:26;;;;;;;8.30;4.20;;;;;;;6.62;58.86;100818.71;107956;1255;60994;-68
2024/03/03 11:00:54;;;;;;;7.60;3.90;;;;;;;6.67;58.52;100813.71;108118;1254;61155;-68
2024/03/03 11:03:22;;;;;;;7.40;4.00;;;;;;;6.72;57.76;100811.46;108137;1254;76889;-70
2024/03/03 11:05:51;;;;;;;7.40;4.20;;;;;;;6.77;56.74;100810.67;108038;1254;75015;-69
2024/03/03 11:08:19;;;;;;;6.80;4.40;;;;;;;6.81;56.95;100807.06;108080;1254;74827;-68
2024/03/03 11:10:50;;;;;;;7.70;4.10;;;;;;;6.90;57.06;100800.56;108036;1254;61782;-68
2024/03/03 11:13:18;;;;;;;6.30;3.60;;;;;;;6.99;56.55;100798.84;108092;1254;61234;-68
2024/03/03 11:15:46;;;;;;;7.20;3.80;;;;;;;7.07;56.27;100799.25;107991;1254;74664;-68
2024/03/03 11:18:18;;;;;;;6.80;4.40;;;;;;;7.13;55.89;100794.88;108092;1254;73237;-68
2024/03/03 11:20:46;;;;;;;7.50;4.10;;;;;;;7.17;55.75;100796.20;108140;1254;72063;-68
2024/03/03 11:23:18;;;;;;;7.50;3.80;;;;;;;7.16;55.39;100795.89;108124;1254;61521;-68
2024/03/03 11:26:10;;;;;;;7.60;3.90;;;;;;;7.09;55.12;100797.02;108121;1254;61191;-68